首页
METAR-TAF:

METAR-TAF

机场 :

克基拉岛扬尼斯·卡波迪斯特里亚斯国际机场

克基拉島, 希腊

纬度: 39-37N, 经度: 019-55E, 海拔: 2米

当前天气观测

该预报发布于28分钟前的16:50 UTC
风速10节,风向西转西北
温度 21°C
湿度 49%
气压 1011 hPa
能见度10公里或以上
少量云层高于3500英尺
散云层高于7000英尺

METAR: LGKR 011650Z 30010KT 9999 FEW035 SCT070 21/10 Q1011 NOSIG

时间: 20:18 (17:18 UTC)

预报

该预报发布于6小时和18分钟前的11:00 UTC
预报有效从01日的 12点(UTC)到 02日的 12点(UTC)
风速12节,风向西北
能见度10公里或以上
少量云层高于2000英尺
散云层高于8000英尺
几率 30% :
短暂存在
从 01日的 12点(UTC)到 01日的 15点(UTC)
能見度: 5000
少量云层高于1800英尺, 塔状积云.
散云层高于2000英尺
多云层高于7000英尺

TAF: LGKR 011100Z 0112/0212 32012KT 9999 FEW020 SCT080 PROB30 TEMPO 0112/0115 5000 RA FEW018TCU SCT020 BKN070

超过4000个机场的气象观测和天气预报(METAR&TAF报告)。

可查询的气象台以黄色和红色小点在地图上表示。

将鼠标移到小点上方,可查看气象台名称。

然后点击查看天气观测和预报。

如需切换地图:点击带黑十字的绿色按钮放大地图;点击带横线的绿色按钮缩小地图;或者点击绿色箭头查看邻近地区的地图。


METAR-TAF: